sensor_id;sensor_type;location;lat;lon;timestamp;P1;durP1;ratioP1;P2;durP2;ratioP2
19675;SDS011;39539;52.202;9.876;2023-07-08T00:01:21;4.22;;;3.80;;
19675;SDS011;39539;52.202;9.876;2023-07-08T00:03:46;3.88;;;3.50;;
19675;SDS011;39539;52.202;9.876;2023-07-08T00:06:16;4.72;;;4.28;;
19675;SDS011;39539;52.202;9.876;2023-07-08T00:08:44;4.57;;;4.20;;
19675;SDS011;39539;52.202;9.876;2023-07-08T00:11:10;4.57;;;4.28;;
19675;SDS011;39539;52.202;9.876;2023-07-08T00:13:36;5.00;;;4.60;;
19675;SDS011;39539;52.202;9.876;2023-07-08T00:16:03;4.90;;;4.45;;
19675;SDS011;39539;52.202;9.876;2023-07-08T00:18:28;5.95;;;4.57;;
19675;SDS011;39539;52.202;9.876;2023-07-08T00:20:54;6.03;;;5.00;;
19675;SDS011;39539;52.202;9.876;2023-07-08T00:23:19;6.20;;;4.60;;
19675;SDS011;39539;52.202;9.876;2023-07-08T00:25:47;5.43;;;4.57;;
19675;SDS011;39539;52.202;9.876;2023-07-08T00:28:20;6.55;;;4.53;;
19675;SDS011;39539;52.202;9.876;2023-07-08T00:30:46;5.07;;;4.68;;
19675;SDS011;39539;52.202;9.876;2023-07-08T00:33:12;4.43;;;4.13;;
19675;SDS011;39539;52.202;9.876;2023-07-08T00:35:38;4.95;;;4.32;;
19675;SDS011;39539;52.202;9.876;2023-07-08T00:38:19;5.60;;;3.83;;
19675;SDS011;39539;52.202;9.876;2023-07-08T00:40:52;4.78;;;4.38;;
19675;SDS011;39539;52.202;9.876;2023-07-08T00:43:27;4.88;;;4.25;;
19675;SDS011;39539;52.202;9.876;2023-07-08T00:51:31;5.40;;;4.90;;
19675;SDS011;39539;52.202;9.876;2023-07-08T00:54:03;5.30;;;4.90;;
19675;SDS011;39539;52.202;9.876;2023-07-08T00:56:30;4.70;;;4.30;;
19675;SDS011;39539;52.202;9.876;2023-07-08T00:59:19;5.07;;;4.68;;
19675;SDS011;39539;52.202;9.876;2023-07-08T01:01:49;4.60;;;4.30;;
19675;SDS011;39539;52.202;9.876;2023-07-08T01:04:24;4.65;;;4.32;;
19675;SDS011;39539;52.202;9.876;2023-07-08T01:06:54;4.65;;;4.00;;
19675;SDS011;39539;52.202;9.876;2023-07-08T01:09:27;4.40;;;4.00;;
19675;SDS011;39539;52.202;9.876;2023-07-08T01:11:58;4.68;;;4.22;;
19675;SDS011;39539;52.202;9.876;2023-07-08T01:14:30;4.43;;;4.13;;
19675;SDS011;39539;52.202;9.876;2023-07-08T01:16:57;4.40;;;3.92;;
19675;SDS011;39539;52.202;9.876;2023-07-08T01:19:23;4.50;;;4.10;;
19675;SDS011;39539;52.202;9.876;2023-07-08T01:24:24;5.47;;;4.90;;
19675;SDS011;39539;52.202;9.876;2023-07-08T01:26:50;4.63;;;4.22;;
19675;SDS011;39539;52.202;9.876;2023-07-08T01:29:15;5.28;;;4.88;;
19675;SDS011;39539;52.202;9.876;2023-07-08T01:31:41;4.78;;;4.38;;
19675;SDS011;39539;52.202;9.876;2023-07-08T01:34:13;5.22;;;4.80;;
19675;SDS011;39539;52.202;9.876;2023-07-08T01:36:40;4.65;;;4.28;;
19675;SDS011;39539;52.202;9.876;2023-07-08T01:39:14;8.55;;;5.47;;
19675;SDS011;39539;52.202;9.876;2023-07-08T01:41:43;7.85;;;5.00;;
19675;SDS011;39539;52.202;9.876;2023-07-08T01:46:46;5.50;;;5.05;;
19675;SDS011;39539;52.202;9.876;2023-07-08T01:49:12;4.97;;;4.47;;
19675;SDS011;39539;52.202;9.876;2023-07-08T01:51:37;4.68;;;4.38;;
19675;SDS011;39539;52.202;9.876;2023-07-08T01:54:02;4.90;;;4.50;;
19675;SDS011;39539;52.202;9.876;2023-07-08T01:56:28;5.15;;;4.65;;
19675;SDS011;39539;52.202;9.876;2023-07-08T01:58:53;4.88;;;4.47;;
19675;SDS011;39539;52.202;9.876;2023-07-08T02:01:18;5.63;;;4.63;;
19675;SDS011;39539;52.202;9.876;2023-07-08T02:03:44;6.07;;;4.55;;
19675;SDS011;39539;52.202;9.876;2023-07-08T02:06:11;5.10;;;4.57;;
19675;SDS011;39539;52.202;9.876;2023-07-08T02:08:36;5.55;;;5.05;;
19675;SDS011;39539;52.202;9.876;2023-07-08T02:11:02;5.65;;;4.95;;
19675;SDS011;39539;52.202;9.876;2023-07-08T02:13:27;6.07;;;4.78;;
19675;SDS011;39539;52.202;9.876;2023-07-08T02:15:52;5.70;;;4.75;;
19675;SDS011;39539;52.202;9.876;2023-07-08T02:18:18;5.47;;;4.70;;
19675;SDS011;39539;52.202;9.876;2023-07-08T02:20:44;5.50;;;5.00;;
19675;SDS011;39539;52.202;9.876;2023-07-08T02:23:09;6.15;;;5.53;;
19675;SDS011;39539;52.202;9.876;2023-07-08T02:25:35;9.15;;;5.30;;
19675;SDS011;39539;52.202;9.876;2023-07-08T02:28:00;5.72;;;4.85;;
19675;SDS011;39539;52.202;9.876;2023-07-08T02:30:25;5.95;;;5.38;;
19675;SDS011;39539;52.202;9.876;2023-07-08T02:32:52;7.45;;;6.85;;
19675;SDS011;39539;52.202;9.876;2023-07-08T02:35:24;6.72;;;6.20;;
19675;SDS011;39539;52.202;9.876;2023-07-08T02:37:52;6.13;;;5.72;;
19675;SDS011;39539;52.202;9.876;2023-07-08T02:40:18;6.43;;;5.93;;
19675;SDS011;39539;52.202;9.876;2023-07-08T02:42:44;5.20;;;4.80;;
19675;SDS011;39539;52.202;9.876;2023-07-08T02:45:10;6.30;;;5.80;;
19675;SDS011;39539;52.202;9.876;2023-07-08T02:47:38;5.22;;;4.82;;
19675;SDS011;39539;52.202;9.876;2023-07-08T02:50:04;6.55;;;5.57;;
19675;SDS011;39539;52.202;9.876;2023-07-08T02:52:30;11.00;;;5.10;;
19675;SDS011;39539;52.202;9.876;2023-07-08T02:54:55;12.45;;;5.18;;
19675;SDS011;39539;52.202;9.876;2023-07-08T02:57:21;5.65;;;5.00;;
19675;SDS011;39539;52.202;9.876;2023-07-08T02:59:46;9.85;;;5.20;;
19675;SDS011;39539;52.202;9.876;2023-07-08T03:02:11;9.32;;;5.75;;
19675;SDS011;39539;52.202;9.876;2023-07-08T03:04:37;6.80;;;6.15;;
19675;SDS011;39539;52.202;9.876;2023-07-08T03:07:04;6.72;;;6.07;;
19675;SDS011;39539;52.202;9.876;2023-07-08T03:09:31;6.40;;;5.85;;
19675;SDS011;39539;52.202;9.876;2023-07-08T03:11:57;6.60;;;6.05;;
19675;SDS011;39539;52.202;9.876;2023-07-08T03:14:23;5.75;;;5.35;;
19675;SDS011;39539;52.202;9.876;2023-07-08T03:16:49;6.10;;;5.50;;
19675;SDS011;39539;52.202;9.876;2023-07-08T03:19:14;6.38;;;5.78;;
19675;SDS011;39539;52.202;9.876;2023-07-08T03:21:40;5.85;;;5.25;;
19675;SDS011;39539;52.202;9.876;2023-07-08T03:24:08;6.38;;;5.88;;
19675;SDS011;39539;52.202;9.876;2023-07-08T03:26:38;6.82;;;5.00;;
19675;SDS011;39539;52.202;9.876;2023-07-08T03:29:03;6.38;;;5.15;;
19675;SDS011;39539;52.202;9.876;2023-07-08T03:31:29;7.03;;;5.13;;
19675;SDS011;39539;52.202;9.876;2023-07-08T03:33:54;6.78;;;4.93;;
19675;SDS011;39539;52.202;9.876;2023-07-08T03:36:19;7.20;;;5.72;;
19675;SDS011;39539;52.202;9.876;2023-07-08T03:38:51;9.75;;;5.93;;
19675;SDS011;39539;52.202;9.876;2023-07-08T03:41:18;7.32;;;6.22;;
19675;SDS011;39539;52.202;9.876;2023-07-08T03:43:44;7.68;;;5.72;;
19675;SDS011;39539;52.202;9.876;2023-07-08T03:46:10;7.97;;;5.70;;
19675;SDS011;39539;52.202;9.876;2023-07-08T03:48:38;6.13;;;5.55;;
19675;SDS011;39539;52.202;9.876;2023-07-08T03:51:04;8.45;;;6.20;;
19675;SDS011;39539;52.202;9.876;2023-07-08T03:53:35;6.72;;;5.85;;
19675;SDS011;39539;52.202;9.876;2023-07-08T03:56:00;8.55;;;6.07;;
19675;SDS011;39539;52.202;9.876;2023-07-08T03:58:25;7.15;;;6.20;;
19675;SDS011;39539;52.202;9.876;2023-07-08T04:00:51;6.10;;;5.43;;
19675;SDS011;39539;52.202;9.876;2023-07-08T04:03:16;6.68;;;5.80;;
19675;SDS011;39539;52.202;9.876;2023-07-08T04:05:41;6.80;;;6.20;;
19675;SDS011;39539;52.202;9.876;2023-07-08T04:08:06;6.00;;;5.47;;
19675;SDS011;39539;52.202;9.876;2023-07-08T04:10:32;6.72;;;5.93;;
19675;SDS011;39539;52.202;9.876;2023-07-08T04:12:57;6.97;;;5.93;;
19675;SDS011;39539;52.202;9.876;2023-07-08T04:15:22;6.60;;;6.07;;
19675;SDS011;39539;52.202;9.876;2023-07-08T04:17:50;6.78;;;5.10;;
19675;SDS011;39539;52.202;9.876;2023-07-08T04:20:17;6.07;;;5.20;;
19675;SDS011;39539;52.202;9.876;2023-07-08T04:22:44;6.10;;;5.25;;
19675;SDS011;39539;52.202;9.876;2023-07-08T04:25:10;6.35;;;5.38;;
19675;SDS011;39539;52.202;9.876;2023-07-08T04:27:37;6.32;;;5.72;;
19675;SDS011;39539;52.202;9.876;2023-07-08T04:30:02;7.68;;;5.60;;
19675;SDS011;39539;52.202;9.876;2023-07-08T04:32:29;6.75;;;6.10;;
19675;SDS011;39539;52.202;9.876;2023-07-08T04:34:54;7.03;;;5.18;;
19675;SDS011;39539;52.202;9.876;2023-07-08T04:37:20;7.88;;;5.70;;
19675;SDS011;39539;52.202;9.876;2023-07-08T04:39:46;7.00;;;5.68;;
19675;SDS011;39539;52.202;9.876;2023-07-08T04:42:13;6.72;;;5.95;;
19675;SDS011;39539;52.202;9.876;2023-07-08T04:44:40;7.13;;;6.03;;
19675;SDS011;39539;52.202;9.876;2023-07-08T04:47:06;7.90;;;5.78;;
19675;SDS011;39539;52.202;9.876;2023-07-08T04:49:34;7.10;;;5.88;;
19675;SDS011;39539;52.202;9.876;2023-07-08T04:52:00;5.80;;;5.20;;
19675;SDS011;39539;52.202;9.876;2023-07-08T04:54:27;5.65;;;5.22;;
19675;SDS011;39539;52.202;9.876;2023-07-08T04:56:53;5.63;;;5.22;;
19675;SDS011;39539;52.202;9.876;2023-07-08T04:59:18;5.68;;;5.03;;
19675;SDS011;39539;52.202;9.876;2023-07-08T05:01:46;5.53;;;5.15;;
19675;SDS011;39539;52.202;9.876;2023-07-08T05:04:13;5.55;;;5.15;;
19675;SDS011;39539;52.202;9.876;2023-07-08T05:06:40;5.00;;;4.60;;
19675;SDS011;39539;52.202;9.876;2023-07-08T05:09:06;4.75;;;4.30;;
19675;SDS011;39539;52.202;9.876;2023-07-08T05:11:31;5.00;;;4.60;;
19675;SDS011;39539;52.202;9.876;2023-07-08T05:13:58;5.00;;;4.60;;
19675;SDS011;39539;52.202;9.876;2023-07-08T05:16:23;6.88;;;4.60;;
19675;SDS011;39539;52.202;9.876;2023-07-08T05:18:49;4.55;;;4.25;;
19675;SDS011;39539;52.202;9.876;2023-07-08T05:21:14;5.32;;;4.55;;
19675;SDS011;39539;52.202;9.876;2023-07-08T05:23:40;5.18;;;4.60;;
19675;SDS011;39539;52.202;9.876;2023-07-08T05:26:06;4.93;;;4.53;;
19675;SDS011;39539;52.202;9.876;2023-07-08T05:28:32;4.32;;;4.00;;
19675;SDS011;39539;52.202;9.876;2023-07-08T05:30:58;4.90;;;4.50;;
19675;SDS011;39539;52.202;9.876;2023-07-08T05:33:25;4.53;;;4.22;;
19675;SDS011;39539;52.202;9.876;2023-07-08T05:35:52;5.30;;;4.80;;
19675;SDS011;39539;52.202;9.876;2023-07-08T05:38:18;5.20;;;4.72;;
19675;SDS011;39539;52.202;9.876;2023-07-08T05:40:47;5.30;;;4.85;;
19675;SDS011;39539;52.202;9.876;2023-07-08T05:43:14;5.55;;;5.07;;
19675;SDS011;39539;52.202;9.876;2023-07-08T05:45:40;5.40;;;4.80;;
19675;SDS011;39539;52.202;9.876;2023-07-08T05:48:06;5.68;;;5.28;;
19675;SDS011;39539;52.202;9.876;2023-07-08T05:50:31;6.93;;;5.60;;
19675;SDS011;39539;52.202;9.876;2023-07-08T05:52:56;6.03;;;5.50;;
19675;SDS011;39539;52.202;9.876;2023-07-08T05:55:22;5.47;;;5.07;;
19675;SDS011;39539;52.202;9.876;2023-07-08T05:57:47;5.72;;;5.25;;
19675;SDS011;39539;52.202;9.876;2023-07-08T06:00:12;6.13;;;5.63;;
19675;SDS011;39539;52.202;9.876;2023-07-08T06:02:38;5.90;;;5.50;;
19675;SDS011;39539;52.202;9.876;2023-07-08T06:05:03;6.32;;;5.75;;
19675;SDS011;39539;52.202;9.876;2023-07-08T06:07:29;5.45;;;4.97;;
19675;SDS011;39539;52.202;9.876;2023-07-08T06:09:54;5.35;;;4.93;;
19675;SDS011;39539;52.202;9.876;2023-07-08T06:12:21;5.90;;;4.90;;
19675;SDS011;39539;52.202;9.876;2023-07-08T06:14:47;4.93;;;4.53;;
19675;SDS011;39539;52.202;9.876;2023-07-08T06:17:12;5.40;;;4.90;;
19675;SDS011;39539;52.202;9.876;2023-07-08T06:19:38;5.22;;;4.75;;
19675;SDS011;39539;52.202;9.876;2023-07-08T06:22:03;5.10;;;4.70;;
19675;SDS011;39539;52.202;9.876;2023-07-08T06:24:29;5.40;;;5.00;;
19675;SDS011;39539;52.202;9.876;2023-07-08T06:26:54;6.70;;;4.80;;
19675;SDS011;39539;52.202;9.876;2023-07-08T06:29:19;4.78;;;4.38;;
19675;SDS011;39539;52.202;9.876;2023-07-08T06:31:45;4.95;;;4.55;;
19675;SDS011;39539;52.202;9.876;2023-07-08T06:34:10;4.80;;;4.40;;
19675;SDS011;39539;52.202;9.876;2023-07-08T06:36:35;4.82;;;4.43;;
19675;SDS011;39539;52.202;9.876;2023-07-08T06:39:02;4.43;;;4.00;;
19675;SDS011;39539;52.202;9.876;2023-07-08T06:41:28;4.85;;;3.70;;
19675;SDS011;39539;52.202;9.876;2023-07-08T06:43:53;4.55;;;4.00;;
19675;SDS011;39539;52.202;9.876;2023-07-08T06:46:19;3.67;;;3.35;;
19675;SDS011;39539;52.202;9.876;2023-07-08T06:48:44;4.15;;;3.60;;
19675;SDS011;39539;52.202;9.876;2023-07-08T06:51:09;4.53;;;3.42;;
19675;SDS011;39539;52.202;9.876;2023-07-08T06:53:35;3.88;;;3.20;;
19675;SDS011;39539;52.202;9.876;2023-07-08T06:56:00;3.58;;;3.28;;
19675;SDS011;39539;52.202;9.876;2023-07-08T06:58:27;4.97;;;3.53;;
19675;SDS011;39539;52.202;9.876;2023-07-08T07:00:53;3.78;;;3.45;;
19675;SDS011;39539;52.202;9.876;2023-07-08T07:03:18;6.78;;;3.15;;
19675;SDS011;39539;52.202;9.876;2023-07-08T07:05:44;4.88;;;3.22;;
19675;SDS011;39539;52.202;9.876;2023-07-08T07:08:09;3.45;;;3.10;;
19675;SDS011;39539;52.202;9.876;2023-07-08T07:10:34;3.40;;;3.10;;
19675;SDS011;39539;52.202;9.876;2023-07-08T07:13:00;3.53;;;3.10;;
19675;SDS011;39539;52.202;9.876;2023-07-08T07:15:25;4.95;;;2.95;;
19675;SDS011;39539;52.202;9.876;2023-07-08T07:17:51;4.10;;;2.60;;
19675;SDS011;39539;52.202;9.876;2023-07-08T07:20:16;4.30;;;2.70;;
19675;SDS011;39539;52.202;9.876;2023-07-08T07:22:41;3.80;;;2.95;;
19675;SDS011;39539;52.202;9.876;2023-07-08T07:25:07;3.97;;;2.85;;
19675;SDS011;39539;52.202;9.876;2023-07-08T07:27:32;2.92;;;2.72;;
19675;SDS011;39539;52.202;9.876;2023-07-08T07:29:57;3.78;;;2.33;;
19675;SDS011;39539;52.202;9.876;2023-07-08T07:32:26;5.13;;;3.10;;
19675;SDS011;39539;52.202;9.876;2023-07-08T07:34:53;2.95;;;2.50;;
19675;SDS011;39539;52.202;9.876;2023-07-08T07:37:19;2.70;;;2.50;;
19675;SDS011;39539;52.202;9.876;2023-07-08T07:39:46;2.80;;;2.60;;
19675;SDS011;39539;52.202;9.876;2023-07-08T07:42:13;3.00;;;2.70;;
19675;SDS011;39539;52.202;9.876;2023-07-08T07:44:39;2.72;;;2.53;;
19675;SDS011;39539;52.202;9.876;2023-07-08T07:47:05;4.18;;;2.90;;
19675;SDS011;39539;52.202;9.876;2023-07-08T07:49:31;2.95;;;2.75;;
19675;SDS011;39539;52.202;9.876;2023-07-08T07:51:57;2.92;;;2.60;;
19675;SDS011;39539;52.202;9.876;2023-07-08T07:54:22;3.00;;;2.70;;
19675;SDS011;39539;52.202;9.876;2023-07-08T07:56:47;2.53;;;2.33;;
19675;SDS011;39539;52.202;9.876;2023-07-08T07:59:13;3.05;;;2.72;;
19675;SDS011;39539;52.202;9.876;2023-07-08T08:01:38;4.03;;;2.70;;
19675;SDS011;39539;52.202;9.876;2023-07-08T08:04:04;3.08;;;2.63;;
19675;SDS011;39539;52.202;9.876;2023-07-08T08:06:29;3.17;;;2.72;;
19675;SDS011;39539;52.202;9.876;2023-07-08T08:08:55;3.30;;;3.00;;
19675;SDS011;39539;52.202;9.876;2023-07-08T08:11:21;3.40;;;3.13;;
19675;SDS011;39539;52.202;9.876;2023-07-08T08:13:47;5.18;;;2.65;;
19675;SDS011;39539;52.202;9.876;2023-07-08T08:16:13;5.88;;;2.90;;
19675;SDS011;39539;52.202;9.876;2023-07-08T08:18:39;3.08;;;2.83;;
19675;SDS011;39539;52.202;9.876;2023-07-08T08:21:04;3.58;;;2.60;;
19675;SDS011;39539;52.202;9.876;2023-07-08T08:23:29;3.60;;;2.83;;
19675;SDS011;39539;52.202;9.876;2023-07-08T08:25:55;6.07;;;3.00;;
19675;SDS011;39539;52.202;9.876;2023-07-08T08:28:20;7.10;;;3.10;;
19675;SDS011;39539;52.202;9.876;2023-07-08T08:30:49;3.13;;;2.83;;
19675;SDS011;39539;52.202;9.876;2023-07-08T08:33:15;2.85;;;2.65;;
19675;SDS011;39539;52.202;9.876;2023-07-08T08:35:44;4.38;;;2.80;;
19675;SDS011;39539;52.202;9.876;2023-07-08T08:38:10;3.20;;;2.90;;
19675;SDS011;39539;52.202;9.876;2023-07-08T08:40:35;3.20;;;2.72;;
19675;SDS011;39539;52.202;9.876;2023-07-08T08:43:05;3.97;;;3.15;;
19675;SDS011;39539;52.202;9.876;2023-07-08T08:45:43;3.35;;;3.08;;
19675;SDS011;39539;52.202;9.876;2023-07-08T08:48:18;3.85;;;3.45;;
19675;SDS011;39539;52.202;9.876;2023-07-08T08:53:26;3.30;;;3.00;;
19675;SDS011;39539;52.202;9.876;2023-07-08T08:56:03;3.35;;;3.05;;
19675;SDS011;39539;52.202;9.876;2023-07-08T09:01:21;6.93;;;2.90;;
19675;SDS011;39539;52.202;9.876;2023-07-08T09:03:57;3.30;;;2.53;;
19675;SDS011;39539;52.202;9.876;2023-07-08T09:06:32;2.70;;;2.50;;
19675;SDS011;39539;52.202;9.876;2023-07-08T09:09:04;3.90;;;3.53;;
19675;SDS011;39539;52.202;9.876;2023-07-08T09:14:26;3.33;;;3.08;;
19675;SDS011;39539;52.202;9.876;2023-07-08T09:16:58;3.88;;;3.33;;
19675;SDS011;39539;52.202;9.876;2023-07-08T09:19:40;3.92;;;3.30;;
19675;SDS011;39539;52.202;9.876;2023-07-08T09:22:14;4.32;;;3.45;;
19675;SDS011;39539;52.202;9.876;2023-07-08T09:27:25;4.38;;;3.58;;
19675;SDS011;39539;52.202;9.876;2023-07-08T09:29:50;4.22;;;3.75;;
19675;SDS011;39539;52.202;9.876;2023-07-08T09:32:17;4.07;;;3.78;;
19675;SDS011;39539;52.202;9.876;2023-07-08T09:34:43;5.00;;;4.10;;
19675;SDS011;39539;52.202;9.876;2023-07-08T09:37:25;4.38;;;3.97;;
19675;SDS011;39539;52.202;9.876;2023-07-08T09:39:55;5.43;;;4.50;;
19675;SDS011;39539;52.202;9.876;2023-07-08T09:42:22;6.07;;;3.90;;
19675;SDS011;39539;52.202;9.876;2023-07-08T09:44:57;6.03;;;3.65;;
19675;SDS011;39539;52.202;9.876;2023-07-08T09:47:27;4.50;;;4.10;;
19675;SDS011;39539;52.202;9.876;2023-07-08T09:49:59;7.00;;;4.30;;
19675;SDS011;39539;52.202;9.876;2023-07-08T09:52:29;4.72;;;4.20;;
19675;SDS011;39539;52.202;9.876;2023-07-08T09:54:55;4.68;;;4.28;;
19675;SDS011;39539;52.202;9.876;2023-07-08T09:59:47;4.50;;;4.18;;
19675;SDS011;39539;52.202;9.876;2023-07-08T10:05:01;4.78;;;4.05;;
19675;SDS011;39539;52.202;9.876;2023-07-08T10:07:38;6.07;;;3.85;;
19675;SDS011;39539;52.202;9.876;2023-07-08T10:10:04;4.88;;;4.20;;
19675;SDS011;39539;52.202;9.876;2023-07-08T10:12:35;6.65;;;4.20;;
19675;SDS011;39539;52.202;9.876;2023-07-08T10:15:15;5.30;;;4.72;;
19675;SDS011;39539;52.202;9.876;2023-07-08T10:17:46;5.57;;;4.70;;
19675;SDS011;39539;52.202;9.876;2023-07-08T10:20:12;5.13;;;4.60;;
19675;SDS011;39539;52.202;9.876;2023-07-08T10:25:57;6.80;;;4.32;;
19675;SDS011;39539;52.202;9.876;2023-07-08T10:28:37;4.57;;;4.18;;
19675;SDS011;39539;52.202;9.876;2023-07-08T10:50:11;4.88;;;4.15;;
19675;SDS011;39539;52.202;9.876;2023-07-08T10:55:42;4.57;;;4.25;;
19675;SDS011;39539;52.202;9.876;2023-07-08T11:04:03;4.28;;;3.97;;
19675;SDS011;39539;52.202;9.876;2023-07-08T11:06:51;4.78;;;4.10;;
19675;SDS011;39539;52.202;9.876;2023-07-08T11:09:31;4.07;;;3.78;;
19675;SDS011;39539;52.202;9.876;2023-07-08T11:12:09;3.90;;;3.70;;
19675;SDS011;39539;52.202;9.876;2023-07-08T11:14:51;4.57;;;4.18;;
19675;SDS011;39539;52.202;9.876;2023-07-08T11:17:44;4.07;;;3.72;;
19675;SDS011;39539;52.202;9.876;2023-07-08T11:22:45;7.32;;;3.72;;
19675;SDS011;39539;52.202;9.876;2023-07-08T11:25:17;4.00;;;3.70;;
19675;SDS011;39539;52.202;9.876;2023-07-08T11:27:43;9.27;;;4.00;;
19675;SDS011;39539;52.202;9.876;2023-07-08T11:32:37;4.15;;;3.85;;
19675;SDS011;39539;52.202;9.876;2023-07-08T11:35:04;4.00;;;3.60;;
19675;SDS011;39539;52.202;9.876;2023-07-08T11:37:32;4.00;;;3.70;;
19675;SDS011;39539;52.202;9.876;2023-07-08T11:40:09;3.97;;;3.72;;
19675;SDS011;39539;52.202;9.876;2023-07-08T11:42:44;4.32;;;3.85;;
19675;SDS011;39539;52.202;9.876;2023-07-08T11:45:19;3.85;;;3.55;;
19675;SDS011;39539;52.202;9.876;2023-07-08T11:47:52;4.43;;;3.90;;
19675;SDS011;39539;52.202;9.876;2023-07-08T11:50:23;4.07;;;3.67;;
19675;SDS011;39539;52.202;9.876;2023-07-08T11:55:27;4.60;;;4.18;;
19675;SDS011;39539;52.202;9.876;2023-07-08T11:58:01;4.50;;;4.10;;
19675;SDS011;39539;52.202;9.876;2023-07-08T12:00:31;4.43;;;4.13;;
19675;SDS011;39539;52.202;9.876;2023-07-08T12:03:03;4.03;;;3.63;;
19675;SDS011;39539;52.202;9.876;2023-07-08T12:05:42;4.20;;;3.90;;
19675;SDS011;39539;52.202;9.876;2023-07-08T12:08:11;4.60;;;3.83;;
19675;SDS011;39539;52.202;9.876;2023-07-08T12:10:47;5.68;;;4.00;;
19675;SDS011;39539;52.202;9.876;2023-07-08T12:13:15;4.30;;;3.90;;
19675;SDS011;39539;52.202;9.876;2023-07-08T12:15:43;4.53;;;4.22;;
19675;SDS011;39539;52.202;9.876;2023-07-08T12:18:12;3.97;;;3.67;;
19675;SDS011;39539;52.202;9.876;2023-07-08T12:20:41;4.28;;;3.95;;
19675;SDS011;39539;52.202;9.876;2023-07-08T12:23:12;4.30;;;3.90;;
19675;SDS011;39539;52.202;9.876;2023-07-08T12:25:43;4.00;;;3.70;;
19675;SDS011;39539;52.202;9.876;2023-07-08T12:28:10;6.72;;;3.97;;
19675;SDS011;39539;52.202;9.876;2023-07-08T12:30:37;5.68;;;4.35;;
19675;SDS011;39539;52.202;9.876;2023-07-08T12:33:03;4.38;;;4.07;;
19675;SDS011;39539;52.202;9.876;2023-07-08T12:35:35;4.50;;;4.20;;
19675;SDS011;39539;52.202;9.876;2023-07-08T12:38:03;4.28;;;3.97;;
19675;SDS011;39539;52.202;9.876;2023-07-08T12:40:50;3.88;;;3.58;;
19675;SDS011;39539;52.202;9.876;2023-07-08T12:43:16;4.05;;;3.75;;
19675;SDS011;39539;52.202;9.876;2023-07-08T12:45:42;4.05;;;3.72;;
19675;SDS011;39539;52.202;9.876;2023-07-08T12:48:08;4.40;;;4.10;;
19675;SDS011;39539;52.202;9.876;2023-07-08T12:50:34;3.92;;;3.53;;
19675;SDS011;39539;52.202;9.876;2023-07-08T12:52:59;4.32;;;4.03;;
19675;SDS011;39539;52.202;9.876;2023-07-08T12:55:29;4.53;;;4.05;;
19675;SDS011;39539;52.202;9.876;2023-07-08T12:57:55;4.72;;;4.25;;
19675;SDS011;39539;52.202;9.876;2023-07-08T13:05:44;4.53;;;4.22;;
19675;SDS011;39539;52.202;9.876;2023-07-08T13:08:13;4.18;;;3.78;;
19675;SDS011;39539;52.202;9.876;2023-07-08T13:10:40;4.88;;;4.47;;
19675;SDS011;39539;52.202;9.876;2023-07-08T13:13:08;4.38;;;3.97;;
19675;SDS011;39539;52.202;9.876;2023-07-08T13:15:38;5.30;;;3.80;;
19675;SDS011;39539;52.202;9.876;2023-07-08T13:18:14;4.35;;;4.05;;
19675;SDS011;39539;52.202;9.876;2023-07-08T13:20:42;3.92;;;3.60;;
19675;SDS011;39539;52.202;9.876;2023-07-08T13:23:12;4.82;;;4.38;;
19675;SDS011;39539;52.202;9.876;2023-07-08T13:25:37;4.20;;;3.90;;
19675;SDS011;39539;52.202;9.876;2023-07-08T13:30:56;4.28;;;3.92;;
19675;SDS011;39539;52.202;9.876;2023-07-08T13:33:33;4.22;;;3.83;;
19675;SDS011;39539;52.202;9.876;2023-07-08T13:36:02;4.47;;;4.00;;
19675;SDS011;39539;52.202;9.876;2023-07-08T13:38:32;5.00;;;4.22;;
19675;SDS011;39539;52.202;9.876;2023-07-08T13:41:01;4.50;;;4.10;;
19675;SDS011;39539;52.202;9.876;2023-07-08T13:43:29;4.43;;;4.03;;
19675;SDS011;39539;52.202;9.876;2023-07-08T13:45:57;4.18;;;3.88;;
19675;SDS011;39539;52.202;9.876;2023-07-08T13:48:28;4.18;;;3.72;;
19675;SDS011;39539;52.202;9.876;2023-07-08T13:53:51;4.88;;;4.47;;
19675;SDS011;39539;52.202;9.876;2023-07-08T13:56:23;4.53;;;4.13;;
19675;SDS011;39539;52.202;9.876;2023-07-08T13:58:59;4.55;;;4.20;;
19675;SDS011;39539;52.202;9.876;2023-07-08T14:01:26;5.85;;;4.05;;
19675;SDS011;39539;52.202;9.876;2023-07-08T14:03:54;4.10;;;3.80;;
19675;SDS011;39539;52.202;9.876;2023-07-08T14:06:21;4.45;;;3.90;;
19675;SDS011;39539;52.202;9.876;2023-07-08T14:08:59;4.80;;;4.32;;
19675;SDS011;39539;52.202;9.876;2023-07-08T14:11:34;4.57;;;3.88;;
19675;SDS011;39539;52.202;9.876;2023-07-08T14:13:59;4.72;;;4.32;;
19675;SDS011;39539;52.202;9.876;2023-07-08T14:16:25;4.15;;;3.85;;
19675;SDS011;39539;52.202;9.876;2023-07-08T14:18:56;4.43;;;4.03;;
19675;SDS011;39539;52.202;9.876;2023-07-08T14:21:23;4.90;;;4.50;;
19675;SDS011;39539;52.202;9.876;2023-07-08T14:23:48;4.75;;;4.43;;
19675;SDS011;39539;52.202;9.876;2023-07-08T14:26:14;4.50;;;4.20;;
19675;SDS011;39539;52.202;9.876;2023-07-08T14:28:39;4.18;;;3.83;;
19675;SDS011;39539;52.202;9.876;2023-07-08T14:31:09;4.47;;;4.18;;
19675;SDS011;39539;52.202;9.876;2023-07-08T14:33:36;4.45;;;4.10;;
19675;SDS011;39539;52.202;9.876;2023-07-08T14:36:02;5.88;;;4.55;;
19675;SDS011;39539;52.202;9.876;2023-07-08T14:38:27;7.45;;;4.45;;
19675;SDS011;39539;52.202;9.876;2023-07-08T14:40:52;4.68;;;4.30;;
19675;SDS011;39539;52.202;9.876;2023-07-08T14:43:23;4.38;;;4.00;;
19675;SDS011;39539;52.202;9.876;2023-07-08T14:45:57;4.57;;;4.18;;
19675;SDS011;39539;52.202;9.876;2023-07-08T14:48:27;4.45;;;4.10;;
19675;SDS011;39539;52.202;9.876;2023-07-08T14:50:53;4.47;;;4.18;;
19675;SDS011;39539;52.202;9.876;2023-07-08T14:53:19;4.47;;;4.18;;
19675;SDS011;39539;52.202;9.876;2023-07-08T14:55:45;5.03;;;4.40;;
19675;SDS011;39539;52.202;9.876;2023-07-08T14:58:32;4.32;;;4.03;;
19675;SDS011;39539;52.202;9.876;2023-07-08T15:01:00;4.80;;;4.30;;
19675;SDS011;39539;52.202;9.876;2023-07-08T15:03:27;4.25;;;3.95;;
19675;SDS011;39539;52.202;9.876;2023-07-08T15:05:53;4.40;;;4.00;;
19675;SDS011;39539;52.202;9.876;2023-07-08T15:08:19;4.78;;;4.38;;
19675;SDS011;39539;52.202;9.876;2023-07-08T15:10:49;5.25;;;4.25;;
19675;SDS011;39539;52.202;9.876;2023-07-08T15:13:17;4.43;;;4.03;;
19675;SDS011;39539;52.202;9.876;2023-07-08T15:15:45;4.65;;;4.03;;
19675;SDS011;39539;52.202;9.876;2023-07-08T15:18:11;4.75;;;4.43;;
19675;SDS011;39539;52.202;9.876;2023-07-08T15:20:38;4.15;;;3.83;;
19675;SDS011;39539;52.202;9.876;2023-07-08T15:23:03;4.20;;;3.80;;
19675;SDS011;39539;52.202;9.876;2023-07-08T15:25:28;4.05;;;3.75;;
19675;SDS011;39539;52.202;9.876;2023-07-08T15:27:55;4.18;;;3.67;;
19675;SDS011;39539;52.202;9.876;2023-07-08T15:30:26;4.47;;;4.18;;
19675;SDS011;39539;52.202;9.876;2023-07-08T15:32:52;6.25;;;4.00;;
19675;SDS011;39539;52.202;9.876;2023-07-08T15:35:20;4.70;;;4.30;;
19675;SDS011;39539;52.202;9.876;2023-07-08T15:37:47;4.10;;;3.80;;
19675;SDS011;39539;52.202;9.876;2023-07-08T15:40:15;4.32;;;4.03;;
19675;SDS011;39539;52.202;9.876;2023-07-08T15:42:42;4.03;;;3.67;;
19675;SDS011;39539;52.202;9.876;2023-07-08T15:45:22;4.55;;;4.15;;
19675;SDS011;39539;52.202;9.876;2023-07-08T15:47:53;4.60;;;4.28;;
19675;SDS011;39539;52.202;9.876;2023-07-08T15:50:19;4.20;;;3.90;;
19675;SDS011;39539;52.202;9.876;2023-07-08T15:52:47;4.20;;;3.90;;
19675;SDS011;39539;52.202;9.876;2023-07-08T15:55:14;4.60;;;4.20;;
19675;SDS011;39539;52.202;9.876;2023-07-08T15:57:47;4.15;;;3.80;;
19675;SDS011;39539;52.202;9.876;2023-07-08T16:00:18;4.43;;;3.95;;
19675;SDS011;39539;52.202;9.876;2023-07-08T16:02:47;4.30;;;3.90;;
19675;SDS011;39539;52.202;9.876;2023-07-08T16:05:15;5.85;;;4.05;;
19675;SDS011;39539;52.202;9.876;2023-07-08T16:07:41;7.65;;;4.35;;
19675;SDS011;39539;52.202;9.876;2023-07-08T16:10:07;4.72;;;4.32;;